Weather History for Belmar-Farmingdale, NJ

Change the Weather History Date:

Friday, January 18, 2013

  Actual Average Record
Temperature  
Mean Temperature 30 °F -  
Max Temperature 37 °F 34 °F 57 °F (2006)
Min Temperature 24 °F 21 °F 3 °F (2000)
Degree Days  
Heating Degree Days 34    
Moisture  
Dew Point -1 °F    
Average Humidity 28    
Maximum Humidity 48    
Minimum Humidity 16    
Precipitation  
Precipitation 0.00 in - - ()
Sea Level Pressure  
Sea Level Pressure 30.33 in    
Wind  
Wind Speed 9 mph (NW)    
Max Wind Speed 21 mph    
Max Gust Speed 32 mph    
Visibility 10 miles    
Events      
Averages and records for this station are not official NWS values.
T = Trace of Precipitation, MM = Missing Value Source: NWS Daily Summary

Daily Weather History Graph

Daily Weather History Graph

Search for Another Location

Airport:

Trip Planner

Search our weather history database for the weather conditions in past years. The results will help you decide how hot, cold, wet, or windy it might be!

Date:

Astronomy

Jan. 18, 2013 Rise Set
Actual Time 7:15 AM EST 4:58 PM EST
Civil Twilight 6:45 AM EST 5:28 PM EST
Nautical Twilight 6:12 AM EST 6:01 PM EST
Astronomical Twilight 5:40 AM EST 6:34 PM EST
Moon 10:52 AM EST (1/18) No Moon Set
Length of Visible Light 10h 42m
Length of Day
9h 43m
Waxing Crescent, 47% of the Moon is Illuminated
Jan 18
Waxing Crescent
Jan 18
First Quarter
Jan 26
Full
Feb 3
Last Quarter
Feb 10
New

Hourly Weather History & Observations

Time (EST) Temp. Windchill Dew Point Humidity Pressure Visibility Wind Dir Wind Speed Gust Speed Precip Events Conditions
12:15 AM 37.4 °F 32.1 °F 15.8 °F 41% 30.01 in 10.0 mi North 6.9 mph - N/A   Overcast
12:35 AM 37.4 °F 33.8 °F 15.8 °F 41% 30.02 in 10.0 mi North 4.6 mph - N/A   Overcast
12:55 AM 37.4 °F 33.8 °F 15.8 °F 41% 30.02 in 10.0 mi NNW 4.6 mph - N/A   Overcast
1:15 AM 35.6 °F 31.7 °F 15.8 °F 44% 30.04 in 10.0 mi NNW 4.6 mph - N/A   Overcast
1:35 AM 37.4 °F 34.9 °F 15.8 °F 41% 30.04 in 10.0 mi NNW 3.5 mph - N/A   Overcast
1:55 AM 35.6 °F 31.7 °F 17.6 °F 48% 30.05 in 10.0 mi NNW 4.6 mph - N/A   Overcast
2:15 AM 35.6 °F 31.7 °F 15.8 °F 44% 30.06 in 10.0 mi NW 4.6 mph - N/A   Overcast
2:35 AM 35.6 °F 31.7 °F 15.8 °F 44% 30.07 in 10.0 mi NNW 4.6 mph - N/A   Overcast
2:55 AM 35.6 °F 29.9 °F 15.8 °F 44% 30.06 in 10.0 mi NNW 6.9 mph - N/A   Overcast
3:15 AM 35.6 °F 30.7 °F 15.8 °F 44% 30.06 in 10.0 mi North 5.8 mph - N/A   Overcast
3:35 AM 35.6 °F 29.2 °F 14.0 °F 41% 30.07 in 10.0 mi North 8.1 mph - N/A   Overcast
3:55 AM 35.6 °F 29.2 °F 12.2 °F 38% 30.07 in 10.0 mi North 8.1 mph - N/A   Overcast
4:15 AM 35.6 °F 26.6 °F 14.0 °F 41% 30.09 in 10.0 mi North 13.8 mph - N/A   Overcast
4:35 AM 33.8 °F 24.8 °F 12.2 °F 41% 30.11 in 9.0 mi NNW 12.7 mph 17.3 mph N/A   Overcast
4:55 AM 32.0 °F 25.6 °F 12.2 °F 44% 30.12 in 10.0 mi North 6.9 mph - N/A   Overcast
5:15 AM 32.0 °F 26.4 °F 10.4 °F 41% 30.13 in 10.0 mi North 5.8 mph - N/A   Overcast
5:35 AM 32.0 °F 25.6 °F 10.4 °F 41% 30.15 in 10.0 mi North 6.9 mph - N/A   Overcast
5:55 AM 30.2 °F 22.6 °F 8.6 °F 40% 30.17 in 10.0 mi North 8.1 mph - N/A   Overcast
6:15 AM 30.2 °F 20.2 °F 8.6 °F 40% 30.18 in 10.0 mi North 12.7 mph - N/A   Overcast
6:35 AM 30.2 °F 18.9 °F 8.6 °F 40% 30.21 in 10.0 mi NNW 16.1 mph 19.6 mph N/A   Overcast
6:55 AM 30.2 °F 19.8 °F 6.8 °F 37% 30.22 in 10.0 mi North 13.8 mph 19.6 mph N/A   Overcast
7:15 AM 30.2 °F 18.1 °F 6.8 °F 37% 30.24 in 10.0 mi NNW 18.4 mph 23.0 mph N/A   Overcast
7:35 AM 30.2 °F 21.3 °F 6.8 °F 37% 30.26 in 10.0 mi North 10.4 mph - N/A   Overcast
7:55 AM 30.2 °F 18.1 °F 6.8 °F 37% 30.28 in 10.0 mi NNW 18.4 mph 25.3 mph N/A   Mostly Cloudy
8:15 AM 30.2 °F 19.3 °F 5.0 °F 34% 30.30 in 10.0 mi NNW 15.0 mph 19.6 mph N/A   Mostly Cloudy
8:35 AM 30.2 °F 17.4 °F 1.4 °F 29% 30.32 in 10.0 mi NW 20.7 mph 28.8 mph N/A   Mostly Cloudy
8:55 AM 30.2 °F 17.4 °F -5.8 °F 21% 30.34 in 10.0 mi NW 20.7 mph 27.6 mph N/A   Clear
9:15 AM 30.2 °F 18.5 °F -11.2 °F 16% 30.37 in 10.0 mi NW 17.3 mph 32.2 mph N/A   Clear
9:35 AM 30.2 °F 19.3 °F -7.6 °F 19% 30.39 in 10.0 mi NW 15.0 mph 26.5 mph N/A   Clear
9:55 AM 30.2 °F 18.5 °F -11.2 °F 16% 30.41 in 10.0 mi NNW 17.3 mph 31.1 mph N/A   Partly Cloudy
10:15 AM 30.2 °F 18.1 °F -11.2 °F 16% 30.41 in 10.0 mi NNW 18.4 mph 29.9 mph N/A   Clear
10:35 AM 30.2 °F 19.3 °F -11.2 °F 16% 30.41 in 10.0 mi NNW 15.0 mph 23.0 mph N/A   Clear
10:55 AM 30.2 °F 18.1 °F -9.4 °F 18% 30.41 in 10.0 mi NNW 18.4 mph 26.5 mph N/A   Partly Cloudy
11:15 AM 30.2 °F 18.5 °F -7.6 °F 19% 30.41 in 10.0 mi NNW 17.3 mph 21.9 mph N/A   Partly Cloudy
11:35 AM 30.2 °F 19.8 °F -7.6 °F 19% 30.41 in 10.0 mi NW 13.8 mph 21.9 mph N/A   Clear
11:55 AM 30.2 °F 18.5 °F -7.6 °F 19% 30.42 in 10.0 mi NNW 17.3 mph 23.0 mph N/A   Scattered Clouds
12:15 PM 30.2 °F 19.8 °F -7.6 °F 19% 30.41 in 10.0 mi NW 13.8 mph 24.2 mph N/A   Partly Cloudy
12:35 PM 30.2 °F 19.3 °F -7.6 °F 19% 30.41 in 10.0 mi NNW 15.0 mph 20.7 mph N/A   Clear
12:55 PM 30.2 °F 19.3 °F -7.6 °F 19% 30.41 in 10.0 mi North 15.0 mph 20.7 mph N/A   Clear
1:15 PM 30.2 °F 20.8 °F -5.8 °F 21% 30.41 in 10.0 mi NW 11.5 mph 16.1 mph N/A   Clear
1:35 PM 30.2 °F 19.8 °F -7.6 °F 19% 30.41 in 10.0 mi NW 13.8 mph 18.4 mph N/A   Clear
1:55 PM 30.2 °F 20.8 °F -9.4 °F 18% 30.43 in 10.0 mi NW 11.5 mph 19.6 mph N/A   Clear
2:15 PM 30.2 °F 18.9 °F -9.4 °F 18% 30.43 in 10.0 mi NNW 16.1 mph 20.7 mph N/A   Clear
2:35 PM 30.2 °F 21.9 °F -9.4 °F 18% 30.43 in 10.0 mi WNW 9.2 mph - N/A   Clear
2:55 PM 32.0 °F 23.0 °F -9.4 °F 17% 30.43 in 10.0 mi West 11.5 mph - N/A   Clear
3:15 PM 30.2 °F 22.6 °F -9.4 °F 18% 30.44 in 10.0 mi West 8.1 mph - N/A   Clear
3:35 PM 30.2 °F 21.9 °F -11.2 °F 16% 30.44 in 10.0 mi NNW 9.2 mph - N/A   Clear
3:55 PM 30.2 °F 22.6 °F -9.4 °F 18% 30.45 in 10.0 mi WNW 8.1 mph - N/A   Clear
4:15 PM 30.2 °F 23.4 °F -9.4 °F 18% 30.45 in 10.0 mi NW 6.9 mph - N/A   Clear
4:35 PM 30.2 °F - -11.2 °F 16% 30.46 in 10.0 mi Calm Calm - N/A   Clear
4:55 PM 28.4 °F 21.2 °F -11.2 °F 18% 30.47 in 10.0 mi West 6.9 mph - N/A   Clear
5:15 PM 28.4 °F 23.3 °F -11.2 °F 18% 30.48 in 10.0 mi West 4.6 mph - N/A   Clear
5:35 PM 28.4 °F 23.3 °F -9.4 °F 19% 30.48 in 10.0 mi West 4.6 mph - N/A   Clear
5:55 PM 28.4 °F - -11.2 °F 18% 30.48 in 10.0 mi Calm Calm - N/A   Clear
6:15 PM 26.6 °F - -7.6 °F 22% 30.49 in 10.0 mi Calm Calm - N/A   Clear
6:35 PM 26.6 °F - -9.4 °F 21% 30.49 in 10.0 mi Calm Calm - N/A   Clear
6:55 PM 26.6 °F - -5.8 °F 24% 30.50 in 10.0 mi Calm Calm - N/A   Clear
7:15 PM 26.6 °F - -7.6 °F 22% 30.50 in 10.0 mi Calm Calm - N/A   Clear
7:35 PM 26.6 °F 20.0 °F -7.6 °F 22% 30.50 in 10.0 mi South 5.8 mph - N/A   Clear
7:55 PM 26.6 °F 21.2 °F -5.8 °F 24% 30.49 in 10.0 mi South 4.6 mph - N/A   Clear
8:15 PM 26.6 °F 22.6 °F -5.8 °F 24% 30.48 in 10.0 mi South 3.5 mph - N/A   Clear
8:35 PM 26.6 °F 21.2 °F -4.0 °F 26% 30.48 in 10.0 mi South 4.6 mph - N/A   Clear
8:55 PM 26.6 °F 22.6 °F -2.2 °F 29% 30.48 in 10.0 mi South 3.5 mph - N/A   Clear
9:35 PM 24.8 °F 20.5 °F -2.2 °F 31% 30.47 in 10.0 mi SSW 3.5 mph - N/A   Clear
9:55 PM 26.6 °F 22.6 °F -5.8 °F 24% 30.48 in 10.0 mi SSW 3.5 mph - N/A   Clear
10:15 PM 26.6 °F 21.2 °F -5.8 °F 24% 30.47 in 10.0 mi SW 4.6 mph - N/A   Clear
10:35 PM 26.6 °F 21.2 °F -4.0 °F 26% 30.46 in 10.0 mi SSW 4.6 mph - N/A   Clear
10:55 PM 26.6 °F 20.0 °F -4.0 °F 26% 30.45 in 10.0 mi SW 5.8 mph - N/A   Clear
11:15 PM 26.6 °F 19.1 °F -4.0 °F 26% 30.44 in 10.0 mi SSW 6.9 mph - N/A   Clear
11:35 PM 26.6 °F 20.0 °F -4.0 °F 26% 30.44 in 10.0 mi South 5.8 mph - N/A   Clear
11:55 PM 26.6 °F 21.2 °F -2.2 °F 29% 30.43 in 10.0 mi South 4.6 mph - N/A   Clear